Detall de PIREP

Printer-friendly versionPDF version

[2008/12/20 20:59:00]
Flight IATA:CT0001
Pilot Number:041
Company ICAO:CAT
Aircraft Type:BE20/A
PAX:4
Departing Airport: LEPA
Destination Airport: LEMH
Alternate Airport:LEPA
Online: VATSIM
Route:MHN4B TONIS2B
Flight Level:A4000
No Slew and time accel
No pause
Crash detect
Detect pilot in Cockpit between each 30 and 45 minutes
20:59 Zero fuel Weight: 9497 Lbs, Fuel Weight: 2892 Lbs
20:59 VATSIM:LEPA 202030Z VRB01KT CAVOK 08/05 Q1031 NOSIG
20:59 VATSIM:LEMH 202030Z 36011G21KT 320V020 CAVOK 12/09 Q1029
20:59 VOICE CATALONIAN
21:00 UTC Jump: added 1 Hour to Log
21:00 UTC Jump: removed 1 Hour from Log
21:03 Parking Brakes off
21:10 Take-off
21:10 Take off Weight: 12333 Lbs
21:10 Wind: 070º @ 001 Knots Heading: 057º
21:10 POS N39º 33´ 00´´ E002º 45´ 01´´
21:10 Gear Up: 149 Knots
21:10 Flaps:1 at 149 Knots
21:11 Flaps:0 at 156 Knots
21:11 Gear Down: 172 Knots
21:11
Gear Up: 176 Knots
21:25 Wind:341º@005 Knots Heading: 078º Ground Speed: 195 Knots Altitude 3973 ft
21:33 Flaps:1 at 183 Knots
21:34 Gear Down: 174 Knots
21:37 TouchDown:Rate -222 ft/min Speed: 116 Knots
21:37 Flaps:0 at 103 Knots
21:37 VATSIM:LEMH 202030Z 36011G21KT 320V020 CAVOK 12/09 Q1029
21:37 Land
21:37 Wind:001º@010 Knots
21:37 Heading: 005º
21:37 Flight Duration: 00:27
21:37 Landing Weight: 12092 Lbs
21:37 POS N39º 51´ 49´´ E004º 13´ 07´´
21:39 Parking brakes on
21:39 Block to Block Duration: 00:36
21:39 Final Fuel: 2581 Lbls
21:39 Spent Fuel: 310 Lbls
21:39 Flight Length: 88 NM
21:39 TOD Land Length: 88 NM

Exportar CSV

Powered by Drupal - Modified by Danger4k